sensor_id;sensor_type;location;lat;lon;timestamp;P1;durP1;ratioP1;P2;durP2;ratioP2
20531;SDS011;10424;52.102;8.084;2023-02-07T00:01:04;21.73;;;9.57;;
20531;SDS011;10424;52.102;8.084;2023-02-07T00:03:32;21.87;;;9.73;;
20531;SDS011;10424;52.102;8.084;2023-02-07T00:06:03;20.07;;;9.30;;
20531;SDS011;10424;52.102;8.084;2023-02-07T00:08:30;21.07;;;9.47;;
20531;SDS011;10424;52.102;8.084;2023-02-07T00:11:03;18.40;;;9.20;;
20531;SDS011;10424;52.102;8.084;2023-02-07T00:13:30;21.90;;;9.80;;
20531;SDS011;10424;52.102;8.084;2023-02-07T00:15:58;20.20;;;9.80;;
20531;SDS011;10424;52.102;8.084;2023-02-07T00:18:25;25.43;;;10.47;;
20531;SDS011;10424;52.102;8.084;2023-02-07T00:20:59;25.63;;;10.17;;
20531;SDS011;10424;52.102;8.084;2023-02-07T00:23:26;21.50;;;9.60;;
20531;SDS011;10424;52.102;8.084;2023-02-07T00:25:53;21.13;;;9.90;;
20531;SDS011;10424;52.102;8.084;2023-02-07T00:28:22;22.73;;;9.63;;
20531;SDS011;10424;52.102;8.084;2023-02-07T00:30:49;21.40;;;9.80;;
20531;SDS011;10424;52.102;8.084;2023-02-07T00:33:17;21.27;;;9.97;;
20531;SDS011;10424;52.102;8.084;2023-02-07T00:35:44;21.80;;;9.77;;
20531;SDS011;10424;52.102;8.084;2023-02-07T00:38:11;22.90;;;10.30;;
20531;SDS011;10424;52.102;8.084;2023-02-07T00:40:38;22.27;;;10.10;;
20531;SDS011;10424;52.102;8.084;2023-02-07T00:43:06;20.90;;;9.73;;
20531;SDS011;10424;52.102;8.084;2023-02-07T00:45:34;22.33;;;10.23;;
20531;SDS011;10424;52.102;8.084;2023-02-07T00:48:02;22.20;;;10.10;;
20531;SDS011;10424;52.102;8.084;2023-02-07T00:50:29;20.53;;;9.67;;
20531;SDS011;10424;52.102;8.084;2023-02-07T00:52:56;22.03;;;9.73;;
20531;SDS011;10424;52.102;8.084;2023-02-07T00:55:23;26.57;;;10.53;;
20531;SDS011;10424;52.102;8.084;2023-02-07T00:57:51;21.50;;;10.43;;
20531;SDS011;10424;52.102;8.084;2023-02-07T01:00:18;22.63;;;10.30;;
20531;SDS011;10424;52.102;8.084;2023-02-07T01:02:47;21.50;;;10.30;;
20531;SDS011;10424;52.102;8.084;2023-02-07T01:05:15;22.83;;;10.07;;
20531;SDS011;10424;52.102;8.084;2023-02-07T01:07:42;23.37;;;10.70;;
20531;SDS011;10424;52.102;8.084;2023-02-07T01:10:09;24.00;;;10.17;;
20531;SDS011;10424;52.102;8.084;2023-02-07T01:12:36;20.23;;;9.63;;
20531;SDS011;10424;52.102;8.084;2023-02-07T01:15:04;23.77;;;11.17;;
20531;SDS011;10424;52.102;8.084;2023-02-07T01:17:32;21.47;;;9.73;;
20531;SDS011;10424;52.102;8.084;2023-02-07T01:20:01;20.30;;;9.57;;
20531;SDS011;10424;52.102;8.084;2023-02-07T01:22:28;26.50;;;10.73;;
20531;SDS011;10424;52.102;8.084;2023-02-07T01:24:55;23.40;;;10.60;;
20531;SDS011;10424;52.102;8.084;2023-02-07T01:27:23;21.10;;;9.60;;
20531;SDS011;10424;52.102;8.084;2023-02-07T01:29:50;21.10;;;9.70;;
20531;SDS011;10424;52.102;8.084;2023-02-07T01:32:17;19.93;;;9.07;;
20531;SDS011;10424;52.102;8.084;2023-02-07T01:34:45;20.43;;;8.83;;
20531;SDS011;10424;52.102;8.084;2023-02-07T01:37:13;22.00;;;10.33;;
20531;SDS011;10424;52.102;8.084;2023-02-07T01:39:41;20.87;;;8.70;;
20531;SDS011;10424;52.102;8.084;2023-02-07T01:42:09;17.43;;;8.57;;
20531;SDS011;10424;52.102;8.084;2023-02-07T01:44:58;19.00;;;8.83;;
20531;SDS011;10424;52.102;8.084;2023-02-07T01:47:26;17.83;;;8.33;;
20531;SDS011;10424;52.102;8.084;2023-02-07T01:49:54;17.10;;;8.00;;
20531;SDS011;10424;52.102;8.084;2023-02-07T01:52:25;20.57;;;8.20;;
20531;SDS011;10424;52.102;8.084;2023-02-07T01:54:56;17.37;;;7.93;;
20531;SDS011;10424;52.102;8.084;2023-02-07T01:57:25;15.97;;;7.90;;
20531;SDS011;10424;52.102;8.084;2023-02-07T01:59:52;17.87;;;8.57;;
20531;SDS011;10424;52.102;8.084;2023-02-07T02:02:21;17.83;;;7.97;;
20531;SDS011;10424;52.102;8.084;2023-02-07T02:04:50;17.23;;;8.03;;
20531;SDS011;10424;52.102;8.084;2023-02-07T02:07:17;17.03;;;7.80;;
20531;SDS011;10424;52.102;8.084;2023-02-07T02:09:46;16.47;;;8.27;;
20531;SDS011;10424;52.102;8.084;2023-02-07T02:12:30;17.27;;;7.70;;
20531;SDS011;10424;52.102;8.084;2023-02-07T02:15:15;15.47;;;8.03;;
20531;SDS011;10424;52.102;8.084;2023-02-07T02:17:48;17.17;;;8.10;;
20531;SDS011;10424;52.102;8.084;2023-02-07T02:23:14;16.67;;;7.47;;
20531;SDS011;10424;52.102;8.084;2023-02-07T02:28:40;17.80;;;7.73;;
20531;SDS011;10424;52.102;8.084;2023-02-07T02:31:33;17.60;;;7.83;;
20531;SDS011;10424;52.102;8.084;2023-02-07T02:34:05;18.90;;;8.20;;
20531;SDS011;10424;52.102;8.084;2023-02-07T02:36:36;16.60;;;7.50;;
20531;SDS011;10424;52.102;8.084;2023-02-07T02:39:07;16.43;;;7.93;;
20531;SDS011;10424;52.102;8.084;2023-02-07T02:41:36;15.47;;;7.60;;
20531;SDS011;10424;52.102;8.084;2023-02-07T02:44:06;16.60;;;8.23;;
20531;SDS011;10424;52.102;8.084;2023-02-07T02:46:37;14.27;;;7.40;;
20531;SDS011;10424;52.102;8.084;2023-02-07T02:49:09;17.23;;;7.17;;
20531;SDS011;10424;52.102;8.084;2023-02-07T02:51:37;12.43;;;6.30;;
20531;SDS011;10424;52.102;8.084;2023-02-07T02:56:50;13.60;;;6.50;;
20531;SDS011;10424;52.102;8.084;2023-02-07T02:59:25;11.53;;;6.67;;
20531;SDS011;10424;52.102;8.084;2023-02-07T03:01:57;12.67;;;5.40;;
20531;SDS011;10424;52.102;8.084;2023-02-07T03:04:35;10.43;;;5.47;;
20531;SDS011;10424;52.102;8.084;2023-02-07T03:07:09;9.63;;;5.60;;
20531;SDS011;10424;52.102;8.084;2023-02-07T03:09:41;10.83;;;5.47;;
20531;SDS011;10424;52.102;8.084;2023-02-07T03:12:15;10.07;;;5.63;;
20531;SDS011;10424;52.102;8.084;2023-02-07T03:14:44;10.47;;;5.03;;
20531;SDS011;10424;52.102;8.084;2023-02-07T03:17:16;9.53;;;5.37;;
20531;SDS011;10424;52.102;8.084;2023-02-07T03:19:48;10.57;;;5.03;;
20531;SDS011;10424;52.102;8.084;2023-02-07T03:22:17;10.00;;;5.53;;
20531;SDS011;10424;52.102;8.084;2023-02-07T03:24:45;10.47;;;4.77;;
20531;SDS011;10424;52.102;8.084;2023-02-07T03:27:14;8.90;;;5.07;;
20531;SDS011;10424;52.102;8.084;2023-02-07T03:29:43;8.50;;;4.90;;
20531;SDS011;10424;52.102;8.084;2023-02-07T03:32:11;7.63;;;4.57;;
20531;SDS011;10424;52.102;8.084;2023-02-07T03:34:41;9.60;;;5.30;;
20531;SDS011;10424;52.102;8.084;2023-02-07T03:37:11;12.03;;;5.30;;
20531;SDS011;10424;52.102;8.084;2023-02-07T03:39:41;10.10;;;5.37;;
20531;SDS011;10424;52.102;8.084;2023-02-07T03:42:10;11.37;;;5.63;;
20531;SDS011;10424;52.102;8.084;2023-02-07T03:44:41;12.53;;;5.60;;
20531;SDS011;10424;52.102;8.084;2023-02-07T03:47:10;10.27;;;5.60;;
20531;SDS011;10424;52.102;8.084;2023-02-07T03:49:37;11.13;;;6.20;;
20531;SDS011;10424;52.102;8.084;2023-02-07T03:52:04;11.83;;;5.97;;
20531;SDS011;10424;52.102;8.084;2023-02-07T03:54:33;11.07;;;5.87;;
20531;SDS011;10424;52.102;8.084;2023-02-07T03:57:00;11.30;;;5.80;;
20531;SDS011;10424;52.102;8.084;2023-02-07T03:59:28;12.80;;;6.47;;
20531;SDS011;10424;52.102;8.084;2023-02-07T04:01:55;12.07;;;6.30;;
20531;SDS011;10424;52.102;8.084;2023-02-07T04:04:22;12.80;;;6.50;;
20531;SDS011;10424;52.102;8.084;2023-02-07T04:06:49;13.67;;;6.23;;
20531;SDS011;10424;52.102;8.084;2023-02-07T04:09:17;13.37;;;6.50;;
20531;SDS011;10424;52.102;8.084;2023-02-07T04:11:48;13.43;;;6.80;;
20531;SDS011;10424;52.102;8.084;2023-02-07T04:14:16;15.63;;;7.43;;
20531;SDS011;10424;52.102;8.084;2023-02-07T04:16:44;14.97;;;7.33;;
20531;SDS011;10424;52.102;8.084;2023-02-07T04:19:11;15.50;;;7.47;;
20531;SDS011;10424;52.102;8.084;2023-02-07T04:21:38;16.17;;;7.20;;
20531;SDS011;10424;52.102;8.084;2023-02-07T04:24:05;14.60;;;7.00;;
20531;SDS011;10424;52.102;8.084;2023-02-07T04:26:33;15.47;;;7.40;;
20531;SDS011;10424;52.102;8.084;2023-02-07T04:29:02;15.43;;;7.60;;
20531;SDS011;10424;52.102;8.084;2023-02-07T04:31:29;14.63;;;7.17;;
20531;SDS011;10424;52.102;8.084;2023-02-07T04:33:56;15.90;;;8.27;;
20531;SDS011;10424;52.102;8.084;2023-02-07T04:36:23;16.60;;;7.60;;
20531;SDS011;10424;52.102;8.084;2023-02-07T04:38:53;16.63;;;8.07;;
20531;SDS011;10424;52.102;8.084;2023-02-07T04:41:20;16.90;;;8.40;;
20531;SDS011;10424;52.102;8.084;2023-02-07T04:43:48;17.00;;;8.13;;
20531;SDS011;10424;52.102;8.084;2023-02-07T04:46:17;16.47;;;8.43;;
20531;SDS011;10424;52.102;8.084;2023-02-07T04:48:45;18.03;;;7.87;;
20531;SDS011;10424;52.102;8.084;2023-02-07T04:51:13;19.00;;;9.03;;
20531;SDS011;10424;52.102;8.084;2023-02-07T04:53:40;16.73;;;8.53;;
20531;SDS011;10424;52.102;8.084;2023-02-07T04:56:07;16.37;;;7.93;;
20531;SDS011;10424;52.102;8.084;2023-02-07T04:58:35;20.03;;;8.97;;
20531;SDS011;10424;52.102;8.084;2023-02-07T05:01:02;15.97;;;8.30;;
20531;SDS011;10424;52.102;8.084;2023-02-07T05:03:30;16.47;;;8.67;;
20531;SDS011;10424;52.102;8.084;2023-02-07T05:05:58;18.10;;;8.93;;
20531;SDS011;10424;52.102;8.084;2023-02-07T05:08:25;18.87;;;8.63;;
20531;SDS011;10424;52.102;8.084;2023-02-07T05:10:53;19.00;;;8.63;;
20531;SDS011;10424;52.102;8.084;2023-02-07T05:13:20;18.00;;;8.63;;
20531;SDS011;10424;52.102;8.084;2023-02-07T05:15:47;18.13;;;8.43;;
20531;SDS011;10424;52.102;8.084;2023-02-07T05:18:15;18.33;;;8.47;;
20531;SDS011;10424;52.102;8.084;2023-02-07T05:20:44;19.30;;;8.77;;
20531;SDS011;10424;52.102;8.084;2023-02-07T05:23:11;17.47;;;8.97;;
20531;SDS011;10424;52.102;8.084;2023-02-07T05:25:39;17.57;;;8.60;;
20531;SDS011;10424;52.102;8.084;2023-02-07T05:28:07;17.27;;;8.10;;
20531;SDS011;10424;52.102;8.084;2023-02-07T05:30:34;17.00;;;8.57;;
20531;SDS011;10424;52.102;8.084;2023-02-07T05:33:02;20.63;;;8.70;;
20531;SDS011;10424;52.102;8.084;2023-02-07T05:35:28;18.63;;;8.40;;
20531;SDS011;10424;52.102;8.084;2023-02-07T05:37:57;18.77;;;8.60;;
20531;SDS011;10424;52.102;8.084;2023-02-07T05:40:24;18.20;;;8.70;;
20531;SDS011;10424;52.102;8.084;2023-02-07T05:42:51;20.00;;;9.00;;
20531;SDS011;10424;52.102;8.084;2023-02-07T05:45:19;18.30;;;9.07;;
20531;SDS011;10424;52.102;8.084;2023-02-07T05:47:46;18.07;;;8.70;;
20531;SDS011;10424;52.102;8.084;2023-02-07T05:50:13;16.07;;;8.33;;
20531;SDS011;10424;52.102;8.084;2023-02-07T05:52:41;17.73;;;8.67;;
20531;SDS011;10424;52.102;8.084;2023-02-07T05:55:10;21.80;;;8.33;;
20531;SDS011;10424;52.102;8.084;2023-02-07T05:57:38;18.73;;;8.50;;
20531;SDS011;10424;52.102;8.084;2023-02-07T06:00:06;18.90;;;8.80;;
20531;SDS011;10424;52.102;8.084;2023-02-07T06:02:34;21.13;;;9.30;;
20531;SDS011;10424;52.102;8.084;2023-02-07T06:05:01;22.10;;;9.13;;
20531;SDS011;10424;52.102;8.084;2023-02-07T06:07:29;19.23;;;8.83;;
20531;SDS011;10424;52.102;8.084;2023-02-07T06:09:56;18.53;;;8.90;;
20531;SDS011;10424;52.102;8.084;2023-02-07T06:12:24;17.83;;;8.50;;
20531;SDS011;10424;52.102;8.084;2023-02-07T06:14:52;20.33;;;8.30;;
20531;SDS011;10424;52.102;8.084;2023-02-07T06:17:19;20.47;;;9.00;;
20531;SDS011;10424;52.102;8.084;2023-02-07T06:19:46;25.70;;;9.67;;
20531;SDS011;10424;52.102;8.084;2023-02-07T06:22:14;19.13;;;9.67;;
20531;SDS011;10424;52.102;8.084;2023-02-07T06:24:41;19.70;;;9.37;;
20531;SDS011;10424;52.102;8.084;2023-02-07T06:27:08;19.80;;;9.13;;
20531;SDS011;10424;52.102;8.084;2023-02-07T06:29:37;23.47;;;9.90;;
20531;SDS011;10424;52.102;8.084;2023-02-07T06:32:04;22.17;;;9.57;;
20531;SDS011;10424;52.102;8.084;2023-02-07T06:34:31;21.23;;;9.57;;
20531;SDS011;10424;52.102;8.084;2023-02-07T06:36:59;19.70;;;9.60;;
20531;SDS011;10424;52.102;8.084;2023-02-07T06:39:26;21.27;;;10.03;;
20531;SDS011;10424;52.102;8.084;2023-02-07T06:41:53;22.87;;;10.03;;
20531;SDS011;10424;52.102;8.084;2023-02-07T06:44:20;19.43;;;9.00;;
20531;SDS011;10424;52.102;8.084;2023-02-07T06:46:49;20.63;;;9.80;;
20531;SDS011;10424;52.102;8.084;2023-02-07T06:49:16;21.90;;;9.97;;
20531;SDS011;10424;52.102;8.084;2023-02-07T06:51:43;22.23;;;10.37;;
20531;SDS011;10424;52.102;8.084;2023-02-07T06:54:11;21.47;;;9.40;;
20531;SDS011;10424;52.102;8.084;2023-02-07T06:56:38;22.83;;;10.50;;
20531;SDS011;10424;52.102;8.084;2023-02-07T06:59:05;25.17;;;10.43;;
20531;SDS011;10424;52.102;8.084;2023-02-07T07:01:32;24.83;;;10.90;;
20531;SDS011;10424;52.102;8.084;2023-02-07T07:04:01;21.83;;;10.03;;
20531;SDS011;10424;52.102;8.084;2023-02-07T07:06:29;22.13;;;10.43;;
20531;SDS011;10424;52.102;8.084;2023-02-07T07:08:56;22.73;;;10.43;;
20531;SDS011;10424;52.102;8.084;2023-02-07T07:11:23;21.60;;;9.97;;
20531;SDS011;10424;52.102;8.084;2023-02-07T07:13:51;22.63;;;10.73;;
20531;SDS011;10424;52.102;8.084;2023-02-07T07:16:18;23.43;;;10.20;;
20531;SDS011;10424;52.102;8.084;2023-02-07T07:18:45;26.33;;;11.83;;
20531;SDS011;10424;52.102;8.084;2023-02-07T07:21:14;21.17;;;10.63;;
20531;SDS011;10424;52.102;8.084;2023-02-07T07:23:41;20.83;;;10.53;;
20531;SDS011;10424;52.102;8.084;2023-02-07T07:26:09;22.10;;;11.30;;
20531;SDS011;10424;52.102;8.084;2023-02-07T07:28:36;28.80;;;11.37;;
20531;SDS011;10424;52.102;8.084;2023-02-07T07:31:04;23.97;;;10.83;;
20531;SDS011;10424;52.102;8.084;2023-02-07T07:33:31;25.43;;;12.83;;
20531;SDS011;10424;52.102;8.084;2023-02-07T07:35:59;31.77;;;16.00;;
20531;SDS011;10424;52.102;8.084;2023-02-07T07:38:28;40.93;;;19.70;;
20531;SDS011;10424;52.102;8.084;2023-02-07T07:40:55;37.37;;;16.03;;
20531;SDS011;10424;52.102;8.084;2023-02-07T07:43:23;22.87;;;11.63;;
20531;SDS011;10424;52.102;8.084;2023-02-07T07:45:51;25.10;;;12.33;;
20531;SDS011;10424;52.102;8.084;2023-02-07T07:48:18;27.07;;;11.67;;
20531;SDS011;10424;52.102;8.084;2023-02-07T07:50:46;27.50;;;12.00;;
20531;SDS011;10424;52.102;8.084;2023-02-07T07:53:13;29.33;;;12.50;;
20531;SDS011;10424;52.102;8.084;2023-02-07T07:55:44;23.90;;;11.53;;
20531;SDS011;10424;52.102;8.084;2023-02-07T07:58:14;26.87;;;12.90;;
20531;SDS011;10424;52.102;8.084;2023-02-07T08:00:41;25.13;;;12.97;;
20531;SDS011;10424;52.102;8.084;2023-02-07T08:03:08;23.77;;;11.23;;
20531;SDS011;10424;52.102;8.084;2023-02-07T08:05:36;24.07;;;11.50;;
20531;SDS011;10424;52.102;8.084;2023-02-07T08:08:04;23.70;;;11.47;;
20531;SDS011;10424;52.102;8.084;2023-02-07T08:10:31;26.33;;;12.10;;
20531;SDS011;10424;52.102;8.084;2023-02-07T08:13:00;23.63;;;11.93;;
20531;SDS011;10424;52.102;8.084;2023-02-07T08:15:28;23.53;;;11.53;;
20531;SDS011;10424;52.102;8.084;2023-02-07T08:17:55;25.87;;;12.07;;
20531;SDS011;10424;52.102;8.084;2023-02-07T08:20:22;21.80;;;11.23;;
20531;SDS011;10424;52.102;8.084;2023-02-07T08:22:50;24.37;;;12.10;;
20531;SDS011;10424;52.102;8.084;2023-02-07T08:25:17;24.10;;;12.33;;
20531;SDS011;10424;52.102;8.084;2023-02-07T08:27:44;22.30;;;11.30;;
20531;SDS011;10424;52.102;8.084;2023-02-07T08:30:13;27.70;;;12.10;;
20531;SDS011;10424;52.102;8.084;2023-02-07T08:32:43;21.40;;;11.87;;
20531;SDS011;10424;52.102;8.084;2023-02-07T08:35:10;18.60;;;9.83;;
20531;SDS011;10424;52.102;8.084;2023-02-07T08:37:37;19.30;;;9.57;;
20531;SDS011;10424;52.102;8.084;2023-02-07T08:40:05;17.07;;;9.50;;
20531;SDS011;10424;52.102;8.084;2023-02-07T08:42:32;18.70;;;9.87;;
20531;SDS011;10424;52.102;8.084;2023-02-07T08:45:00;15.07;;;9.27;;
20531;SDS011;10424;52.102;8.084;2023-02-07T08:47:30;17.10;;;9.80;;
20531;SDS011;10424;52.102;8.084;2023-02-07T08:49:57;16.35;;;10.05;;
20531;SDS011;10424;52.102;8.084;2023-02-07T08:52:24;15.68;;;9.95;;
20531;SDS011;10424;52.102;8.084;2023-02-07T08:54:52;16.23;;;10.30;;
20531;SDS011;10424;52.102;8.084;2023-02-07T08:57:19;15.15;;;9.68;;
20531;SDS011;10424;52.102;8.084;2023-02-07T08:59:49;16.33;;;10.27;;
20531;SDS011;10424;52.102;8.084;2023-02-07T09:02:16;14.27;;;9.55;;
20531;SDS011;10424;52.102;8.084;2023-02-07T09:04:45;16.90;;;10.57;;
20531;SDS011;10424;52.102;8.084;2023-02-07T09:07:12;15.82;;;10.48;;
20531;SDS011;10424;52.102;8.084;2023-02-07T09:09:40;18.13;;;10.95;;
20531;SDS011;10424;52.102;8.084;2023-02-07T09:12:07;15.43;;;10.20;;
20531;SDS011;10424;52.102;8.084;2023-02-07T09:14:35;15.73;;;10.32;;
20531;SDS011;10424;52.102;8.084;2023-02-07T09:17:02;15.25;;;10.35;;
20531;SDS011;10424;52.102;8.084;2023-02-07T09:19:30;14.20;;;10.05;;
20531;SDS011;10424;52.102;8.084;2023-02-07T09:21:58;16.80;;;11.02;;
20531;SDS011;10424;52.102;8.084;2023-02-07T09:24:26;16.33;;;11.40;;
20531;SDS011;10424;52.102;8.084;2023-02-07T09:26:53;17.52;;;12.15;;
20531;SDS011;10424;52.102;8.084;2023-02-07T09:31:49;17.35;;;11.27;;
20531;SDS011;10424;52.102;8.084;2023-02-07T09:34:16;17.33;;;11.45;;
20531;SDS011;10424;52.102;8.084;2023-02-07T09:36:44;17.33;;;11.48;;
20531;SDS011;10424;52.102;8.084;2023-02-07T09:39:12;16.55;;;12.23;;
20531;SDS011;10424;52.102;8.084;2023-02-07T09:41:41;17.00;;;11.60;;
20531;SDS011;10424;52.102;8.084;2023-02-07T09:44:13;18.45;;;11.52;;
20531;SDS011;10424;52.102;8.084;2023-02-07T09:46:43;17.63;;;11.48;;
20531;SDS011;10424;52.102;8.084;2023-02-07T09:49:14;16.85;;;11.23;;
20531;SDS011;10424;52.102;8.084;2023-02-07T09:51:42;17.80;;;12.02;;
20531;SDS011;10424;52.102;8.084;2023-02-07T09:54:14;16.20;;;11.43;;
20531;SDS011;10424;52.102;8.084;2023-02-07T09:56:44;17.15;;;11.45;;
20531;SDS011;10424;52.102;8.084;2023-02-07T09:59:15;16.85;;;12.07;;
20531;SDS011;10424;52.102;8.084;2023-02-07T10:01:46;15.75;;;11.25;;
20531;SDS011;10424;52.102;8.084;2023-02-07T10:04:21;16.83;;;11.70;;
20531;SDS011;10424;52.102;8.084;2023-02-07T10:06:54;15.18;;;10.70;;
20531;SDS011;10424;52.102;8.084;2023-02-07T10:09:24;15.52;;;11.05;;
20531;SDS011;10424;52.102;8.084;2023-02-07T10:11:54;15.82;;;11.27;;
20531;SDS011;10424;52.102;8.084;2023-02-07T10:14:26;15.50;;;11.13;;
20531;SDS011;10424;52.102;8.084;2023-02-07T10:17:11;15.65;;;11.50;;
20531;SDS011;10424;52.102;8.084;2023-02-07T10:19:42;15.73;;;11.18;;
20531;SDS011;10424;52.102;8.084;2023-02-07T10:22:14;15.85;;;11.57;;
20531;SDS011;10424;52.102;8.084;2023-02-07T10:24:50;14.63;;;10.70;;
20531;SDS011;10424;52.102;8.084;2023-02-07T10:27:22;17.27;;;11.30;;
20531;SDS011;10424;52.102;8.084;2023-02-07T10:29:50;15.35;;;11.05;;
20531;SDS011;10424;52.102;8.084;2023-02-07T10:32:21;14.02;;;10.52;;
20531;SDS011;10424;52.102;8.084;2023-02-07T10:34:49;14.25;;;10.82;;
20531;SDS011;10424;52.102;8.084;2023-02-07T10:37:19;14.25;;;10.48;;
20531;SDS011;10424;52.102;8.084;2023-02-07T10:39:48;13.85;;;10.50;;
20531;SDS011;10424;52.102;8.084;2023-02-07T10:42:18;14.13;;;11.00;;
20531;SDS011;10424;52.102;8.084;2023-02-07T10:44:48;14.70;;;10.93;;
20531;SDS011;10424;52.102;8.084;2023-02-07T10:47:16;14.18;;;10.63;;
20531;SDS011;10424;52.102;8.084;2023-02-07T10:49:44;13.50;;;10.32;;
20531;SDS011;10424;52.102;8.084;2023-02-07T10:52:16;14.65;;;10.70;;
20531;SDS011;10424;52.102;8.084;2023-02-07T10:54:48;14.40;;;10.90;;
20531;SDS011;10424;52.102;8.084;2023-02-07T10:57:17;13.40;;;10.32;;
20531;SDS011;10424;52.102;8.084;2023-02-07T10:59:46;13.05;;;10.25;;
20531;SDS011;10424;52.102;8.084;2023-02-07T11:02:30;13.90;;;10.13;;
20531;SDS011;10424;52.102;8.084;2023-02-07T11:05:02;13.23;;;10.20;;
20531;SDS011;10424;52.102;8.084;2023-02-07T11:07:31;13.05;;;10.30;;
20531;SDS011;10424;52.102;8.084;2023-02-07T11:10:11;12.75;;;9.90;;
20531;SDS011;10424;52.102;8.084;2023-02-07T11:12:43;12.95;;;9.98;;
20531;SDS011;10424;52.102;8.084;2023-02-07T11:15:15;11.38;;;9.45;;
20531;SDS011;10424;52.102;8.084;2023-02-07T11:17:47;11.90;;;9.60;;
20531;SDS011;10424;52.102;8.084;2023-02-07T11:20:17;11.18;;;9.05;;
20531;SDS011;10424;52.102;8.084;2023-02-07T11:22:45;13.07;;;8.95;;
20531;SDS011;10424;52.102;8.084;2023-02-07T11:25:17;11.98;;;9.40;;
20531;SDS011;10424;52.102;8.084;2023-02-07T11:27:44;12.05;;;9.95;;
20531;SDS011;10424;52.102;8.084;2023-02-07T11:30:15;11.60;;;9.52;;
20531;SDS011;10424;52.102;8.084;2023-02-07T11:32:44;10.70;;;8.98;;
20531;SDS011;10424;52.102;8.084;2023-02-07T11:35:20;11.00;;;9.00;;
20531;SDS011;10424;52.102;8.084;2023-02-07T11:37:48;9.50;;;7.45;;
20531;SDS011;10424;52.102;8.084;2023-02-07T11:40:26;8.27;;;6.40;;
20531;SDS011;10424;52.102;8.084;2023-02-07T11:42:56;9.43;;;7.60;;
20531;SDS011;10424;52.102;8.084;2023-02-07T11:45:25;11.38;;;8.73;;
20531;SDS011;10424;52.102;8.084;2023-02-07T11:47:54;10.57;;;8.55;;
20531;SDS011;10424;52.102;8.084;2023-02-07T11:50:23;10.63;;;8.43;;
20531;SDS011;10424;52.102;8.084;2023-02-07T11:52:52;9.55;;;7.35;;
20531;SDS011;10424;52.102;8.084;2023-02-07T11:55:21;8.68;;;6.57;;
20531;SDS011;10424;52.102;8.084;2023-02-07T11:57:48;7.70;;;6.05;;
20531;SDS011;10424;52.102;8.084;2023-02-07T12:00:17;7.45;;;6.05;;
20531;SDS011;10424;52.102;8.084;2023-02-07T12:02:49;9.27;;;7.47;;
20531;SDS011;10424;52.102;8.084;2023-02-07T12:05:17;9.32;;;6.20;;
20531;SDS011;10424;52.102;8.084;2023-02-07T12:07:47;7.13;;;5.68;;
20531;SDS011;10424;52.102;8.084;2023-02-07T12:10:18;6.72;;;5.53;;
20531;SDS011;10424;52.102;8.084;2023-02-07T12:12:47;7.32;;;5.85;;
20531;SDS011;10424;52.102;8.084;2023-02-07T12:15:16;7.75;;;5.75;;
20531;SDS011;10424;52.102;8.084;2023-02-07T12:17:52;7.40;;;5.93;;
20531;SDS011;10424;52.102;8.084;2023-02-07T12:20:23;7.60;;;5.60;;
20531;SDS011;10424;52.102;8.084;2023-02-07T12:22:52;6.85;;;5.68;;
20531;SDS011;10424;52.102;8.084;2023-02-07T12:25:22;7.50;;;5.50;;
20531;SDS011;10424;52.102;8.084;2023-02-07T12:27:50;8.52;;;6.18;;
20531;SDS011;10424;52.102;8.084;2023-02-07T12:30:20;6.70;;;5.60;;
20531;SDS011;10424;52.102;8.084;2023-02-07T12:32:52;7.28;;;5.80;;
20531;SDS011;10424;52.102;8.084;2023-02-07T12:35:23;6.88;;;5.93;;
20531;SDS011;10424;52.102;8.084;2023-02-07T12:37:54;9.70;;;6.00;;
20531;SDS011;10424;52.102;8.084;2023-02-07T12:40:25;7.03;;;5.65;;
20531;SDS011;10424;52.102;8.084;2023-02-07T12:42:54;6.97;;;5.45;;
20531;SDS011;10424;52.102;8.084;2023-02-07T12:45:29;7.13;;;5.70;;
20531;SDS011;10424;52.102;8.084;2023-02-07T12:48:00;5.93;;;5.20;;
20531;SDS011;10424;52.102;8.084;2023-02-07T12:50:39;6.93;;;6.00;;
20531;SDS011;10424;52.102;8.084;2023-02-07T12:53:12;7.53;;;6.32;;
20531;SDS011;10424;52.102;8.084;2023-02-07T12:55:44;7.28;;;6.15;;
20531;SDS011;10424;52.102;8.084;2023-02-07T12:58:24;7.82;;;6.13;;
20531;SDS011;10424;52.102;8.084;2023-02-07T13:00:56;7.15;;;5.93;;
20531;SDS011;10424;52.102;8.084;2023-02-07T13:03:27;7.35;;;5.65;;
20531;SDS011;10424;52.102;8.084;2023-02-07T13:06:02;6.60;;;5.22;;
20531;SDS011;10424;52.102;8.084;2023-02-07T13:08:32;6.20;;;5.18;;
20531;SDS011;10424;52.102;8.084;2023-02-07T13:11:05;6.22;;;5.18;;
20531;SDS011;10424;52.102;8.084;2023-02-07T13:13:37;6.82;;;5.40;;
20531;SDS011;10424;52.102;8.084;2023-02-07T13:16:07;6.75;;;5.43;;
20531;SDS011;10424;52.102;8.084;2023-02-07T13:18:38;6.15;;;5.03;;
20531;SDS011;10424;52.102;8.084;2023-02-07T13:21:11;6.60;;;4.25;;
20531;SDS011;10424;52.102;8.084;2023-02-07T13:23:42;6.28;;;5.00;;
20531;SDS011;10424;52.102;8.084;2023-02-07T13:26:12;6.30;;;5.18;;
20531;SDS011;10424;52.102;8.084;2023-02-07T13:28:42;9.90;;;5.25;;
20531;SDS011;10424;52.102;8.084;2023-02-07T13:31:12;6.65;;;5.20;;
20531;SDS011;10424;52.102;8.084;2023-02-07T13:33:41;7.93;;;5.70;;
20531;SDS011;10424;52.102;8.084;2023-02-07T13:36:12;6.25;;;5.43;;
20531;SDS011;10424;52.102;8.084;2023-02-07T13:38:45;6.80;;;5.60;;
20531;SDS011;10424;52.102;8.084;2023-02-07T13:41:19;6.38;;;5.57;;
20531;SDS011;10424;52.102;8.084;2023-02-07T13:43:52;8.00;;;5.50;;
20531;SDS011;10424;52.102;8.084;2023-02-07T13:46:28;7.32;;;5.60;;
20531;SDS011;10424;52.102;8.084;2023-02-07T13:48:56;6.95;;;5.65;;
20531;SDS011;10424;52.102;8.084;2023-02-07T13:51:29;7.10;;;5.80;;
20531;SDS011;10424;52.102;8.084;2023-02-07T13:54:00;7.72;;;5.60;;
20531;SDS011;10424;52.102;8.084;2023-02-07T13:56:34;8.65;;;6.72;;
20531;SDS011;10424;52.102;8.084;2023-02-07T13:59:32;7.88;;;6.10;;
20531;SDS011;10424;52.102;8.084;2023-02-07T14:02:12;9.00;;;7.13;;
20531;SDS011;10424;52.102;8.084;2023-02-07T14:04:49;9.45;;;7.13;;
20531;SDS011;10424;52.102;8.084;2023-02-07T14:07:20;8.18;;;6.28;;
20531;SDS011;10424;52.102;8.084;2023-02-07T14:09:50;10.45;;;7.53;;
20531;SDS011;10424;52.102;8.084;2023-02-07T14:12:21;9.07;;;6.68;;
20531;SDS011;10424;52.102;8.084;2023-02-07T14:14:50;10.43;;;7.22;;
20531;SDS011;10424;52.102;8.084;2023-02-07T14:20:00;13.35;;;7.20;;
20531;SDS011;10424;52.102;8.084;2023-02-07T14:22:29;10.90;;;7.15;;
20531;SDS011;10424;52.102;8.084;2023-02-07T14:28:04;8.60;;;6.47;;
20531;SDS011;10424;52.102;8.084;2023-02-07T14:30:34;7.82;;;6.45;;
20531;SDS011;10424;52.102;8.084;2023-02-07T14:33:09;15.05;;;7.97;;
20531;SDS011;10424;52.102;8.084;2023-02-07T14:35:37;9.60;;;7.25;;
20531;SDS011;10424;52.102;8.084;2023-02-07T14:38:10;10.85;;;7.82;;
20531;SDS011;10424;52.102;8.084;2023-02-07T14:40:50;10.68;;;8.30;;
20531;SDS011;10424;52.102;8.084;2023-02-07T14:43:32;9.70;;;6.72;;
20531;SDS011;10424;52.102;8.084;2023-02-07T14:46:05;11.20;;;6.95;;
20531;SDS011;10424;52.102;8.084;2023-02-07T14:48:43;9.35;;;7.13;;
20531;SDS011;10424;52.102;8.084;2023-02-07T14:51:13;8.27;;;6.00;;
20531;SDS011;10424;52.102;8.084;2023-02-07T14:53:42;7.53;;;5.95;;
20531;SDS011;10424;52.102;8.084;2023-02-07T14:56:14;11.57;;;6.90;;
20531;SDS011;10424;52.102;8.084;2023-02-07T14:58:46;8.65;;;6.70;;
20531;SDS011;10424;52.102;8.084;2023-02-07T15:01:16;10.43;;;6.70;;
20531;SDS011;10424;52.102;8.084;2023-02-07T15:03:44;8.75;;;6.60;;